Time;durP1;ratioP1;P1;durP2;ratioP2;P2;SDS_P1;SDS_P2;PMS_P1;PMS_P2;Temp;Humidity;BMP_temperature;BMP_pressure;BME280_temperature;BME280_humidity;BME280_pressure;Samples;Min_cycle;Max_cycle;Signal;HPM_P1;HPM_P2
2023/07/13 00:01:54;;;;;;;7.00;1.88;;;18.00;76.60;;;;;;5120697;28;20046;-88
2023/07/13 00:04:24;;;;;;;4.53;1.55;;;17.90;76.70;;;;;;5123647;28;20579;-87
2023/07/13 00:06:53;;;;;;;2.72;1.52;;;17.90;76.70;;;;;;5127322;28;20096;-86
2023/07/13 00:09:21;;;;;;;3.80;1.60;;;17.90;76.70;;;;;;5123304;28;20083;-87
2023/07/13 00:11:54;;;;;;;5.40;1.67;;;17.90;76.80;;;;;;5120560;28;20139;-87
2023/07/13 00:14:22;;;;;;;4.72;1.80;;;17.90;76.90;;;;;;5127972;27;20082;-87
2023/07/13 00:16:49;;;;;;;5.50;1.75;;;17.80;76.70;;;;;;5126171;28;20321;-87
2023/07/13 00:19:16;;;;;;;5.50;1.88;;;17.80;77.30;;;;;;5126470;28;20051;-87
2023/07/13 00:21:43;;;;;;;10.52;1.83;;;17.80;76.80;;;;;;5120700;28;20051;-87
2023/07/13 00:24:15;;;;;;;5.55;1.77;;;17.80;77.40;;;;;;5127602;28;20130;-87
2023/07/13 00:26:45;;;;;;;12.02;2.03;;;17.80;77.90;;;;;;5119252;28;20059;-87
2023/07/13 00:29:13;;;;;;;5.43;1.88;;;17.80;77.90;;;;;;5126456;28;20555;-88
2023/07/13 00:31:40;;;;;;;7.03;1.80;;;17.80;77.50;;;;;;5128399;27;20124;-88
2023/07/13 00:34:07;;;;;;;9.50;1.80;;;17.80;78.10;;;;;;5131124;27;20134;-87
2023/07/13 00:36:34;;;;;;;7.45;1.83;;;17.80;78.40;;;;;;5132539;27;20043;-88
2023/07/13 00:39:02;;;;;;;11.10;2.25;;;17.80;77.80;;;;;;5126769;27;20063;-88
2023/07/13 00:41:30;;;;;;;4.05;1.60;;;17.80;78.30;;;;;;5130965;27;20051;-87
2023/07/13 00:43:57;;;;;;;7.15;1.98;;;17.80;77.80;;;;;;5129155;27;20105;-88
2023/07/13 00:46:29;;;;;;;5.38;1.75;;;17.80;77.70;;;;;;5131092;27;20081;-88
2023/07/13 00:49:00;;;;;;;10.07;2.67;;;17.80;77.90;;;;;;5131236;27;20043;-87
2023/07/13 00:51:32;;;;;;;7.18;1.55;;;17.70;78.10;;;;;;5127742;27;20126;-88
2023/07/13 00:54:03;;;;;;;10.23;1.98;;;17.70;77.90;;;;;;5125533;27;20538;-88
2023/07/13 00:56:32;;;;;;;4.60;1.55;;;17.70;77.80;;;;;;5120531;27;20085;-88
2023/07/13 00:59:00;;;;;;;6.80;2.00;;;17.70;78.00;;;;;;5125832;27;20055;-88
2023/07/13 01:01:27;;;;;;;9.02;1.88;;;17.70;78.50;;;;;;5130690;27;20051;-93
2023/07/13 01:03:54;;;;;;;3.45;1.67;;;17.70;78.70;;;;;;5126627;27;20398;-94
2023/07/13 01:06:21;;;;;;;6.20;1.75;;;17.70;78.60;;;;;;5128229;27;20569;-93
2023/07/13 01:08:48;;;;;;;7.20;1.73;;;17.60;78.50;;;;;;5128145;27;20135;-94
2023/07/13 01:11:20;;;;;;;5.20;1.60;;;17.60;78.40;;;;;;5131335;27;20110;-94
2023/07/13 01:13:48;;;;;;;6.60;1.60;;;17.60;78.50;;;;;;5129144;27;20057;-88
2023/07/13 01:16:28;;;;;;;3.42;1.80;;;17.60;79.00;;;;;;5125731;27;20039;-88
2023/07/13 01:18:58;;;;;;;2.20;1.63;;;17.50;78.80;;;;;;5123766;27;20329;-88
2023/07/13 01:21:27;;;;;;;6.45;1.75;;;17.50;79.10;;;;;;5122195;27;20075;-89
2023/07/13 01:23:55;;;;;;;3.85;1.92;;;17.50;79.00;;;;;;5126282;27;20126;-88
2023/07/13 01:26:22;;;;;;;5.05;2.03;;;17.50;78.50;;;;;;5123360;27;20124;-88
2023/07/13 01:28:49;;;;;;;4.90;1.48;;;17.50;78.60;;;;;;5123698;27;20491;-88
2023/07/13 01:31:16;;;;;;;10.18;2.03;;;17.40;79.30;;;;;;5118366;27;20040;-89
2023/07/13 01:33:43;;;;;;;2.35;1.73;;;17.40;79.30;;;;;;5122141;27;20551;-88
2023/07/13 01:36:11;;;;;;;3.90;1.77;;;17.40;79.30;;;;;;5119946;27;20126;-88
2023/07/13 01:38:38;;;;;;;7.38;2.03;;;17.30;79.90;;;;;;5119128;27;20122;-88
2023/07/13 01:41:05;;;;;;;6.03;2.10;;;17.30;80.10;;;;;;5126320;27;20080;-88
2023/07/13 01:43:32;;;;;;;7.03;2.20;;;17.30;79.50;;;;;;5127525;27;20588;-88
2023/07/13 01:45:59;;;;;;;6.60;2.20;;;17.30;79.70;;;;;;5123723;27;20081;-88
2023/07/13 01:48:46;;;;;;;4.80;1.63;;;17.20;79.90;;;;;;5121682;27;20660;-88
2023/07/13 01:51:13;;;;;;;12.45;2.47;;;17.10;80.30;;;;;;5125083;27;20092;-88
2023/07/13 01:53:40;;;;;;;5.70;1.85;;;17.10;80.50;;;;;;5127651;27;20234;-88
2023/07/13 01:56:07;;;;;;;8.70;2.03;;;17.00;80.70;;;;;;5124170;27;20464;-88
2023/07/13 01:58:34;;;;;;;6.72;2.33;;;17.00;81.00;;;;;;5127169;27;20842;-88
2023/07/13 02:01:01;;;;;;;8.43;2.15;;;16.90;81.00;;;;;;5121400;27;20074;-88
2023/07/13 02:03:28;;;;;;;4.78;2.30;;;16.90;81.80;;;;;;5128624;27;20066;-89
2023/07/13 02:05:55;;;;;;;5.35;2.45;;;16.80;82.00;;;;;;5120607;27;20116;-88
2023/07/13 02:10:47;;;;;;;8.90;2.58;;;16.70;82.10;;;;;;5089417;22;20207;-78
2023/07/13 02:13:14;;;;;;;7.10;2.15;;;16.70;82.20;;;;;;5061827;28;20136;-77
2023/07/13 02:15:41;;;;;;;6.32;2.45;;;16.70;82.40;;;;;;5064813;28;20143;-77
2023/07/13 02:18:08;;;;;;;6.55;2.53;;;16.70;82.40;;;;;;5064437;28;20117;-78
2023/07/13 02:20:35;;;;;;;4.47;2.08;;;16.70;83.20;;;;;;5066096;28;20127;-78
2023/07/13 02:23:02;;;;;;;6.50;2.70;;;16.70;83.00;;;;;;5065312;28;20469;-79
2023/07/13 02:25:29;;;;;;;8.02;2.28;;;16.70;83.00;;;;;;5066025;28;20044;-78
2023/07/13 02:27:56;;;;;;;11.85;2.95;;;16.70;83.10;;;;;;5067301;28;20049;-78
2023/07/13 02:30:24;;;;;;;3.40;2.00;;;16.70;83.40;;;;;;5063194;28;20427;-78
2023/07/13 02:32:51;;;;;;;5.13;2.00;;;16.70;83.60;;;;;;5062711;28;20071;-78
2023/07/13 02:35:18;;;;;;;6.50;2.85;;;16.70;83.00;;;;;;5064310;28;20551;-78
2023/07/13 02:37:45;;;;;;;4.35;2.30;;;16.70;82.80;;;;;;5064686;28;20119;-78
2023/07/13 02:40:12;;;;;;;5.43;2.42;;;16.70;82.60;;;;;;5062304;28;20053;-78
2023/07/13 02:42:39;;;;;;;5.68;2.30;;;16.70;82.80;;;;;;5069319;28;20083;-78
2023/07/13 02:45:08;;;;;;;3.67;2.20;;;16.70;82.50;;;;;;5068154;28;20059;-78
2023/07/13 02:47:35;;;;;;;11.95;3.60;;;16.60;82.60;;;;;;5059195;28;20114;-78
2023/07/13 02:50:02;;;;;;;5.93;2.13;;;16.70;82.60;;;;;;5060510;28;20051;-78
2023/07/13 02:52:29;;;;;;;7.30;2.05;;;16.70;82.90;;;;;;5067404;28;20055;-78
2023/07/13 02:54:56;;;;;;;7.88;2.65;;;16.60;82.50;;;;;;5064100;28;20048;-77
2023/07/13 02:57:23;;;;;;;13.10;2.65;;;16.60;82.70;;;;;;5057401;28;20163;-78
2023/07/13 02:59:50;;;;;;;3.67;2.30;;;16.60;82.40;;;;;;5055678;28;20475;-78
2023/07/13 03:02:17;;;;;;;8.45;3.08;;;16.60;82.30;;;;;;5054615;28;20841;-78
2023/07/13 03:04:44;;;;;;;5.50;1.98;;;16.60;82.80;;;;;;5066682;28;20416;-78
2023/07/13 03:07:13;;;;;;;4.20;2.50;;;16.60;82.70;;;;;;5061267;28;20051;-77
2023/07/13 03:09:40;;;;;;;6.22;2.47;;;16.60;82.70;;;;;;5068490;28;20045;-78
2023/07/13 03:12:07;;;;;;;6.15;3.00;;;16.60;82.60;;;;;;5058603;28;20271;-78
2023/07/13 03:14:34;;;;;;;10.30;2.20;;;16.60;83.10;;;;;;5065368;28;20052;-78
2023/07/13 03:17:01;;;;;;;4.57;2.28;;;16.60;82.70;;;;;;5062354;28;20576;-77
2023/07/13 03:19:28;;;;;;;5.63;2.22;;;16.60;82.50;;;;;;5063745;28;20052;-78
2023/07/13 03:21:55;;;;;;;10.48;2.35;;;16.60;82.70;;;;;;5061771;28;20056;-78
2023/07/13 03:24:25;;;;;;;4.50;2.40;;;16.60;82.70;;;;;;5065217;28;20087;-78
2023/07/13 03:26:52;;;;;;;5.05;2.60;;;16.50;82.90;;;;;;5061885;28;20098;-78
2023/07/13 03:29:19;;;;;;;6.22;2.78;;;16.50;83.30;;;;;;5063303;28;20048;-78
2023/07/13 03:31:46;;;;;;;8.57;3.05;;;16.50;83.40;;;;;;5065154;28;20044;-78
2023/07/13 03:34:13;;;;;;;6.47;2.75;;;16.50;83.90;;;;;;5062064;28;20454;-77
2023/07/13 03:36:40;;;;;;;8.95;2.67;;;16.50;83.40;;;;;;5060668;28;20048;-78
2023/07/13 03:39:08;;;;;;;9.05;2.65;;;16.40;83.70;;;;;;5061971;28;20060;-78
2023/07/13 03:41:36;;;;;;;6.95;2.67;;;16.40;83.90;;;;;;5060770;28;20048;-78
2023/07/13 03:44:03;;;;;;;9.20;2.80;;;16.40;84.10;;;;;;5056863;28;20739;-78
2023/07/13 03:46:30;;;;;;;11.68;2.90;;;16.30;84.10;;;;;;5062660;28;20060;-78
2023/07/13 03:48:58;;;;;;;5.85;2.90;;;16.30;84.20;;;;;;5062013;28;20063;-77
2023/07/13 03:51:25;;;;;;;6.78;2.70;;;16.30;84.90;;;;;;5061567;28;20040;-77
2023/07/13 03:53:52;;;;;;;8.20;2.75;;;16.30;84.70;;;;;;5062841;28;20056;-78
2023/07/13 03:56:19;;;;;;;6.57;2.42;;;16.20;84.90;;;;;;5063910;28;20118;-77
2023/07/13 03:58:47;;;;;;;6.32;3.35;;;16.20;84.90;;;;;;5057931;28;20055;-77
2023/07/13 04:01:16;;;;;;;7.25;3.28;;;16.20;85.10;;;;;;5065199;28;20044;-78
2023/07/13 04:03:44;;;;;;;5.68;3.40;;;16.20;85.40;;;;;;5066217;28;20044;-78
2023/07/13 04:06:24;;;;;;;6.30;3.70;;;16.20;85.50;;;;;;5056050;28;20128;-77
2023/07/13 04:08:54;;;;;;;15.13;4.38;;;16.20;85.50;;;;;;5060303;28;20045;-78
2023/07/13 04:11:24;;;;;;;5.75;3.35;;;16.20;85.40;;;;;;5057718;28;20044;-78
2023/07/13 04:13:52;;;;;;;6.32;3.92;;;16.20;85.50;;;;;;5066267;28;20508;-78
2023/07/13 04:16:19;;;;;;;14.10;4.68;;;16.20;85.40;;;;;;5064975;28;20056;-78
2023/07/13 04:18:47;;;;;;;7.03;4.30;;;16.20;85.90;;;;;;5057162;28;20045;-78
2023/07/13 04:21:15;;;;;;;6.32;3.95;;;16.20;85.70;;;;;;5059766;28;20044;-78
2023/07/13 04:23:42;;;;;;;7.05;3.58;;;16.20;86.00;;;;;;5060420;28;20092;-77
2023/07/13 04:26:09;;;;;;;18.05;4.45;;;16.20;85.50;;;;;;5056608;28;20149;-78
2023/07/13 04:28:37;;;;;;;6.97;3.45;;;16.20;85.70;;;;;;5059373;28;20049;-78
2023/07/13 04:31:04;;;;;;;9.95;3.80;;;16.20;85.40;;;;;;5063458;28;20136;-77
2023/07/13 04:33:31;;;;;;;8.20;3.72;;;16.20;85.30;;;;;;5060712;28;20059;-78
2023/07/13 04:35:59;;;;;;;12.45;3.92;;;16.20;85.00;;;;;;5057947;28;20562;-77
2023/07/13 04:38:29;;;;;;;6.28;4.03;;;16.20;85.10;;;;;;5067450;28;20048;-78
2023/07/13 04:40:58;;;;;;;7.18;3.58;;;16.30;85.30;;;;;;5056853;28;20056;-77
2023/07/13 04:43:26;;;;;;;8.98;3.72;;;16.30;85.00;;;;;;5064363;28;20068;-77
2023/07/13 04:45:53;;;;;;;9.35;3.50;;;16.30;85.10;;;;;;5065501;28;20090;-77
2023/07/13 04:48:21;;;;;;;8.45;3.88;;;16.30;85.40;;;;;;5059316;28;21461;-77
2023/07/13 04:50:54;;;;;;;6.20;3.60;;;16.30;84.90;;;;;;5060672;28;20055;-78
2023/07/13 04:53:21;;;;;;;6.00;3.28;;;16.40;85.10;;;;;;5055649;28;20051;-77
2023/07/13 04:55:48;;;;;;;9.82;3.60;;;16.40;85.10;;;;;;5060470;28;20053;-78
2023/07/13 04:58:15;;;;;;;13.68;3.85;;;16.40;84.50;;;;;;5058691;28;20044;-78
2023/07/13 05:00:42;;;;;;;15.95;3.60;;;16.50;84.40;;;;;;5064644;28;20131;-78
2023/07/13 05:03:09;;;;;;;7.90;3.45;;;16.50;84.00;;;;;;5062833;28;20040;-78
2023/07/13 05:05:36;;;;;;;15.20;3.15;;;16.50;83.80;;;;;;5077148;28;20044;-76
2023/07/13 05:08:03;;;;;;;5.13;3.38;;;16.50;83.70;;;;;;5056771;28;20572;-77
2023/07/13 05:10:30;;;;;;;7.55;3.83;;;16.60;83.40;;;;;;5060591;28;20124;-83
2023/07/13 05:12:56;;;;;;;10.27;4.20;;;16.60;83.80;;;;;;5059286;28;20515;-84
2023/07/13 05:15:25;;;;;;;16.20;4.10;;;16.70;84.10;;;;;;5053268;28;20114;-80
2023/07/13 05:17:52;;;;;;;7.38;3.80;;;16.70;84.00;;;;;;5056583;28;20049;-85
2023/07/13 05:20:19;;;;;;;9.48;4.03;;;16.70;84.10;;;;;;5068568;28;20049;-75
2023/07/13 05:22:50;;;;;;;9.13;4.00;;;16.80;84.40;;;;;;5065242;28;20136;-79
2023/07/13 05:25:17;;;;;;;9.60;3.92;;;16.90;84.70;;;;;;5056121;28;20125;-78
2023/07/13 05:27:45;;;;;;;8.00;4.00;;;16.90;84.50;;;;;;5068418;28;20056;-76
2023/07/13 05:30:13;;;;;;;11.85;3.72;;;17.00;84.10;;;;;;5066420;28;20394;-76
2023/07/13 05:32:40;;;;;;;10.32;3.72;;;17.00;84.00;;;;;;5060923;28;20049;-74
2023/07/13 05:35:08;;;;;;;13.32;3.85;;;17.10;84.20;;;;;;5056944;28;20131;-76
2023/07/13 05:37:37;;;;;;;8.32;3.72;;;17.10;84.00;;;;;;5061291;28;20059;-79
2023/07/13 05:40:04;;;;;;;7.75;3.38;;;17.20;83.80;;;;;;5064213;28;20057;-79
2023/07/13 05:42:32;;;;;;;17.15;3.83;;;17.20;83.90;;;;;;5069530;28;20052;-77
2023/07/13 05:44:58;;;;;;;15.55;3.60;;;17.30;83.70;;;;;;5063207;28;20052;-79
2023/07/13 05:47:25;;;;;;;5.57;2.80;;;17.40;83.40;;;;;;5058046;28;20077;-79
2023/07/13 05:49:52;;;;;;;13.52;3.25;;;17.50;84.10;;;;;;5066029;28;20064;-77
2023/07/13 05:52:19;;;;;;;9.93;3.25;;;17.50;83.50;;;;;;5066126;28;20091;-77
2023/07/13 05:54:46;;;;;;;7.13;3.00;;;17.60;83.30;;;;;;5059796;28;20057;-77
2023/07/13 05:57:13;;;;;;;11.25;3.20;;;17.70;82.80;;;;;;5064897;28;20048;-76
2023/07/13 05:59:39;;;;;;;7.35;3.22;;;17.80;82.60;;;;;;5062986;28;20079;-76
2023/07/13 06:02:09;;;;;;;11.30;2.88;;;17.90;82.40;;;;;;5064051;28;20646;-77
2023/07/13 06:04:36;;;;;;;9.85;3.70;;;18.00;82.60;;;;;;5062629;28;20770;-77
2023/07/13 06:07:03;;;;;;;7.05;2.95;;;18.10;82.50;;;;;;5063368;28;20469;-77
2023/07/13 06:09:30;;;;;;;5.90;2.88;;;18.10;82.40;;;;;;5065669;28;20048;-77
2023/07/13 06:11:57;;;;;;;8.85;3.28;;;18.30;81.80;;;;;;5066139;28;20671;-77
2023/07/13 06:14:24;;;;;;;6.95;3.05;;;18.40;80.70;;;;;;5065301;28;20079;-77
2023/07/13 06:16:51;;;;;;;10.27;4.00;;;18.60;79.80;;;;;;5061126;28;20469;-75
2023/07/13 06:19:18;;;;;;;7.20;2.75;;;18.80;78.90;;;;;;5047795;28;20052;-76
2023/07/13 06:21:45;;;;;;;11.70;3.45;;;19.00;78.70;;;;;;5071559;28;20549;-76
2023/07/13 06:24:12;;;;;;;5.70;3.00;;;19.20;77.80;;;;;;5052729;28;21179;-76
2023/07/13 06:26:38;;;;;;;6.05;2.20;;;19.50;77.40;;;;;;5059598;28;20048;-76
2023/07/13 06:29:05;;;;;;;10.55;2.75;;;19.70;74.90;;;;;;5060308;28;20053;-75
2023/07/13 06:31:32;;;;;;;9.38;2.72;;;20.00;73.80;;;;;;5058768;28;20526;-76
2023/07/13 06:33:59;;;;;;;5.88;2.70;;;20.20;73.80;;;;;;5058050;28;20090;-75
2023/07/13 06:36:26;;;;;;;6.55;2.10;;;20.50;71.90;;;;;;5060634;28;21246;-76
2023/07/13 06:38:53;;;;;;;7.00;2.63;;;20.80;72.10;;;;;;5060792;28;20122;-76
2023/07/13 06:41:22;;;;;;;6.13;2.63;;;21.00;70.00;;;;;;5060618;28;20060;-76
2023/07/13 06:43:48;;;;;;;4.93;1.75;;;21.20;68.60;;;;;;5059584;28;20139;-76
2023/07/13 06:46:16;;;;;;;8.00;1.92;;;21.40;67.60;;;;;;5057867;28;20044;-75
2023/07/13 06:48:43;;;;;;;3.85;1.88;;;21.70;66.90;;;;;;5064846;28;20075;-76
2023/07/13 06:51:10;;;;;;;3.22;1.88;;;21.90;66.40;;;;;;5065643;28;20080;-75
2023/07/13 06:53:37;;;;;;;5.78;2.00;;;22.10;64.90;;;;;;5062751;28;20053;-76
2023/07/13 06:56:05;;;;;;;7.70;1.98;;;22.30;65.40;;;;;;5058410;28;20044;-76
2023/07/13 06:58:34;;;;;;;9.50;1.70;;;22.40;64.60;;;;;;5060405;28;20055;-76
2023/07/13 07:01:01;;;;;;;5.72;1.80;;;22.60;61.40;;;;;;5063695;28;20157;-76
2023/07/13 07:03:28;;;;;;;8.10;2.10;;;22.80;61.20;;;;;;5064981;28;20214;-76
2023/07/13 07:06:00;;;;;;;4.78;1.92;;;22.90;60.00;;;;;;5057708;28;20052;-76
2023/07/13 07:08:27;;;;;;;9.45;2.05;;;23.10;61.90;;;;;;5051155;28;20140;-76
2023/07/13 07:10:54;;;;;;;7.28;1.60;;;23.20;59.40;;;;;;5064693;28;20095;-76
2023/07/13 07:13:21;;;;;;;2.92;1.85;;;23.30;60.80;;;;;;5063734;28;20080;-76
2023/07/13 07:15:50;;;;;;;2.85;1.73;;;23.40;59.80;;;;;;5057832;28;20059;-75
2023/07/13 07:18:16;;;;;;;6.68;1.73;;;23.60;60.20;;;;;;5055206;28;20831;-75
2023/07/13 07:20:43;;;;;;;5.40;1.33;;;23.70;60.10;;;;;;5061384;28;20052;-76
2023/07/13 07:23:10;;;;;;;7.43;1.70;;;23.90;59.70;;;;;;5061788;28;20052;-76
2023/07/13 07:25:41;;;;;;;4.63;1.58;;;24.10;58.40;;;;;;5057019;28;20848;-76
2023/07/13 07:28:09;;;;;;;3.17;1.23;;;24.20;56.40;;;;;;5058153;28;20114;-76
2023/07/13 07:30:43;;;;;;;3.88;1.50;;;24.40;55.80;;;;;;5056984;28;20131;-76
2023/07/13 07:33:13;;;;;;;6.47;1.60;;;24.50;54.40;;;;;;5061735;28;20052;-76
2023/07/13 07:35:40;;;;;;;6.03;1.85;;;24.50;55.10;;;;;;5057577;28;20048;-76
2023/07/13 07:38:27;;;;;;;7.07;1.50;;;24.60;55.20;;;;;;5059452;28;20560;-76
2023/07/13 07:40:54;;;;;;;5.25;1.77;;;24.60;53.00;;;;;;5051918;28;20054;-76
2023/07/13 07:43:24;;;;;;;6.20;1.63;;;24.60;53.30;;;;;;5056723;28;20056;-76
2023/07/13 07:45:51;;;;;;;4.13;1.60;;;24.60;57.40;;;;;;5063892;28;20057;-76
2023/07/13 07:48:17;;;;;;;6.57;1.50;;;24.70;53.80;;;;;;5056720;28;20048;-76
2023/07/13 07:50:44;;;;;;;6.00;1.42;;;24.60;54.40;;;;;;5062174;28;20648;-76
2023/07/13 07:53:12;;;;;;;2.58;1.00;;;24.50;51.30;;;;;;5056127;28;20052;-76
2023/07/13 07:55:48;;;;;;;6.55;1.65;;;24.20;50.50;;;;;;5061709;28;20082;-75
2023/07/13 07:58:18;;;;;;;4.25;1.40;;;24.10;54.20;;;;;;5051078;28;20057;-75
2023/07/13 08:01:05;;;;;;;7.63;1.65;;;23.80;54.20;;;;;;5059028;28;20662;-76
2023/07/13 08:03:35;;;;;;;9.35;1.50;;;23.60;53.50;;;;;;5059807;28;20083;-76
2023/07/13 08:06:05;;;;;;;6.53;1.58;;;23.40;54.60;;;;;;5064966;28;20099;-76
2023/07/13 08:08:35;;;;;;;4.53;1.70;;;23.30;54.60;;;;;;5061933;28;20127;-76
2023/07/13 08:11:04;;;;;;;5.75;1.75;;;23.30;56.00;;;;;;5056126;28;20053;-76
2023/07/13 08:13:51;;;;;;;5.07;1.35;;;23.30;53.00;;;;;;5050168;28;20045;-76
2023/07/13 08:16:22;;;;;;;5.80;1.42;;;23.20;55.60;;;;;;5058091;28;20051;-75
2023/07/13 08:18:49;;;;;;;13.18;1.75;;;23.30;55.40;;;;;;5057308;28;20068;-76
2023/07/13 08:21:17;;;;;;;3.35;1.55;;;23.50;58.60;;;;;;5062611;28;20060;-76
2023/07/13 08:23:43;;;;;;;5.43;1.67;;;23.90;55.60;;;;;;5059917;28;20067;-76
2023/07/13 08:26:10;;;;;;;3.65;1.42;;;24.30;54.80;;;;;;5064508;28;20063;-75
2023/07/13 08:28:37;;;;;;;3.90;1.50;;;24.40;52.10;;;;;;5062342;28;20057;-76
2023/07/13 08:31:07;;;;;;;3.95;1.40;;;24.50;52.20;;;;;;5062887;28;20048;-76
2023/07/13 08:33:35;;;;;;;5.93;1.38;;;24.70;52.40;;;;;;5060807;28;20745;-76
2023/07/13 08:36:04;;;;;;;4.07;1.95;;;24.80;51.50;;;;;;5062037;28;20044;-76
2023/07/13 08:38:32;;;;;;;9.75;1.75;;;24.60;51.40;;;;;;5060747;28;20048;-76
2023/07/13 08:40:59;;;;;;;4.70;1.50;;;24.80;51.30;;;;;;5057308;28;20047;-76
2023/07/13 08:43:34;;;;;;;12.65;1.63;;;25.10;51.70;;;;;;5056665;28;20048;-76
2023/07/13 08:46:30;;;;;;;4.15;1.20;;;25.50;50.20;;;;;;5066826;28;20056;-76
2023/07/13 08:48:58;;;;;;;;;;;25.60;48.70;;;;;;5074433;28;20053;-76
2023/07/13 08:51:43;;;;;;;12.35;1.60;;;25.60;46.30;;;;;;5061949;28;20483;-76
2023/07/13 08:54:24;;;;;;;6.03;1.50;;;25.60;49.20;;;;;;5063992;28;20459;-75
2023/07/13 08:56:53;;;;;;;7.63;1.65;;;25.80;48.40;;;;;;5063171;28;20052;-76
2023/07/13 08:59:25;;;;;;;15.30;2.10;;;26.00;48.60;;;;;;5066365;28;20048;-76
2023/07/13 09:02:16;;;;;;;7.00;1.30;;;26.00;49.00;;;;;;5066943;28;20056;-76
2023/07/13 09:04:52;;;;;;;11.88;1.42;;;25.90;46.60;;;;;;5077929;28;20132;-76
2023/07/13 09:07:38;;;;;;;6.00;1.45;;;26.00;48.50;;;;;;5060752;28;20052;-76
2023/07/13 09:10:25;;;;;;;;;;;26.10;47.00;;;;;;5053720;28;20140;-76
2023/07/13 09:13:33;;;;;;;4.07;1.45;;;25.80;47.10;;;;;;5068304;28;19976;-79
2023/07/13 09:16:01;;;;;;;11.38;1.75;;;25.80;49.50;;;;;;5064310;28;20127;-78
2023/07/13 09:18:42;;;;;;;4.07;1.40;;;26.10;49.90;;;;;;5072015;28;20052;-78
2023/07/13 09:21:13;;;;;;;7.95;1.48;;;26.50;48.30;;;;;;5081439;28;20113;-78
2023/07/13 09:23:40;;;;;;;6.47;1.42;;;26.50;50.70;;;;;;5070339;28;20044;-78
2023/07/13 09:26:29;;;;;;;7.90;1.35;;;26.70;48.20;;;;;;5064510;28;20044;-78
2023/07/13 09:29:27;;;;;;;4.38;1.52;;;27.00;46.40;;;;;;5059030;28;20055;-79
2023/07/13 09:31:58;;;;;;;4.03;1.15;;;26.80;44.30;;;;;;5060401;28;20044;-79
2023/07/13 09:34:30;;;;;;;6.55;1.33;;;26.40;45.80;;;;;;5067247;28;20072;-79
2023/07/13 09:36:57;;;;;;;5.50;1.58;;;26.20;46.90;;;;;;5059092;28;20048;-79
2023/07/13 09:39:32;;;;;;;5.85;2.17;;;26.10;49.70;;;;;;5069976;28;20121;-79
2023/07/13 09:42:16;;;;;;;8.45;2.28;;;26.10;50.20;;;;;;5070759;28;20496;-79
2023/07/13 09:44:56;;;;;;;2.40;1.30;;;26.30;49.70;;;;;;5056512;28;20473;-78
2023/07/13 09:47:26;;;;;;;5.00;1.60;;;26.70;50.00;;;;;;5070149;28;20153;-80
2023/07/13 09:49:58;;;;;;;7.65;2.72;;;27.10;48.50;;;;;;5059007;28;20149;-78
2023/07/13 09:52:41;;;;;;;2.65;1.15;;;27.20;48.10;;;;;;5062781;28;20041;-78
2023/07/13 09:55:38;;;;;;;4.22;1.25;;;27.20;47.80;;;;;;5066022;28;20068;-78
2023/07/13 09:58:11;;;;;;;32.58;1.85;;;27.40;47.40;;;;;;5059929;28;20044;-79
2023/07/13 10:00:40;;;;;;;5.30;1.25;;;27.50;46.10;;;;;;5059370;28;20040;-79
2023/07/13 10:03:20;;;;;;;4.07;1.23;;;27.70;45.60;;;;;;5062646;28;20128;-79
2023/07/13 10:05:50;;;;;;;10.93;1.67;;;28.00;45.10;;;;;;5058014;28;20065;-79
2023/07/13 10:08:30;;;;;;;6.45;2.03;;;28.10;43.80;;;;;;5061252;28;20128;-80
2023/07/13 10:11:00;;;;;;;2.63;1.33;;;28.20;45.80;;;;;;5054459;28;20159;-77
2023/07/13 10:13:32;;;;;;;5.15;1.02;;;28.10;43.20;;;;;;5058844;28;20052;-77
2023/07/13 10:16:00;;;;;;;5.50;1.25;;;28.10;43.50;;;;;;5057985;28;20456;-78
2023/07/13 10:18:29;;;;;;;4.80;1.40;;;28.20;43.70;;;;;;5070457;28;20083;-78
2023/07/13 10:21:11;;;;;;;9.57;1.23;;;28.30;46.50;;;;;;5068331;28;20064;-78
2023/07/13 10:24:18;;;;;;;3.85;1.15;;;28.40;41.90;;;;;;5057694;28;20060;-78
2023/07/13 10:26:55;;;;;;;4.78;1.33;;;27.90;42.50;;;;;;5063664;28;20049;-78
2023/07/13 10:29:24;;;;;;;5.50;1.60;;;27.40;43.10;;;;;;5067307;28;20056;-78
2023/07/13 10:31:51;;;;;;;5.40;1.80;;;27.00;44.50;;;;;;5057792;28;20626;-78
2023/07/13 10:34:19;;;;;;;5.85;1.25;;;26.60;43.50;;;;;;5065737;28;20045;-78
2023/07/13 10:36:47;;;;;;;10.05;1.63;;;26.10;44.20;;;;;;5068567;28;20053;-78
2023/07/13 10:39:24;;;;;;;12.40;1.38;;;25.70;44.80;;;;;;5061216;28;20159;-78
2023/07/13 10:41:59;;;;;;;11.07;2.00;;;25.40;46.00;;;;;;5064446;28;20053;-78
2023/07/13 10:44:29;;;;;;;5.22;1.73;;;25.20;46.50;;;;;;5069970;28;20099;-79
2023/07/13 10:47:01;;;;;;;6.50;1.63;;;25.10;47.50;;;;;;5063997;28;20413;-78
2023/07/13 10:49:30;;;;;;;3.25;1.00;;;25.00;47.40;;;;;;5059993;28;20059;-78
2023/07/13 10:51:58;;;;;;;12.80;1.73;;;24.90;48.10;;;;;;5068855;28;20052;-78
2023/07/13 10:54:34;;;;;;;10.80;1.52;;;24.80;48.50;;;;;;5063054;28;20102;-78
2023/07/13 10:57:18;;;;;;;9.45;1.50;;;24.50;49.10;;;;;;5068571;28;20052;-78
2023/07/13 11:00:04;;;;;;;4.38;1.10;;;24.20;48.60;;;;;;5066818;28;20040;-77
2023/07/13 11:02:31;;;;;;;6.10;1.30;;;24.00;48.00;;;;;;5066727;28;20052;-77
2023/07/13 11:04:58;;;;;;;7.30;1.75;;;23.80;48.70;;;;;;5061475;28;20688;-78
2023/07/13 11:07:31;;;;;;;8.38;1.30;;;23.80;51.10;;;;;;5061447;28;20083;-77
2023/07/13 11:10:05;;;;;;;10.93;1.75;;;23.50;50.80;;;;;;5058538;28;20045;-78
2023/07/13 11:12:47;;;;;;;9.63;1.85;;;23.40;52.30;;;;;;5068034;28;20076;-77
2023/07/13 11:15:14;;;;;;;6.78;1.35;;;23.30;54.20;;;;;;5063761;28;20425;-77
2023/07/13 11:17:59;;;;;;;9.20;1.30;;;23.20;54.40;;;;;;5057877;28;20132;-78
2023/07/13 11:20:34;;;;;;;;;;;23.10;54.10;;;;;;5064227;28;20056;-77
2023/07/13 11:23:13;;;;;;;5.22;1.13;;;23.20;54.60;;;;;;5057897;28;19924;-77
2023/07/13 11:25:40;;;;;;;7.10;1.25;;;23.50;57.70;;;;;;5056709;28;20057;-77
2023/07/13 11:28:10;;;;;;;6.82;1.60;;;23.90;54.40;;;;;;5068911;28;20056;-78
2023/07/13 11:30:40;;;;;;;10.15;1.67;;;24.00;53.70;;;;;;5070270;28;20131;-78
2023/07/13 11:33:23;;;;;;;8.65;1.40;;;24.00;53.10;;;;;;5067462;28;20090;-78
2023/07/13 11:35:56;;;;;;;14.27;1.58;;;24.00;55.20;;;;;;5063154;28;20080;-78
2023/07/13 11:38:35;;;;;;;9.00;1.90;;;23.90;54.60;;;;;;5069899;28;20048;-78
2023/07/13 11:41:19;;;;;;;6.47;1.50;;;23.80;55.20;;;;;;5064178;28;20052;-78
2023/07/13 11:43:50;;;;;;;9.88;1.67;;;23.70;56.30;;;;;;5063883;28;20091;-78
2023/07/13 11:46:25;;;;;;;16.33;2.17;;;23.60;56.40;;;;;;5060430;28;20455;-77
2023/07/13 11:48:53;;;;;;;7.72;1.15;;;23.60;57.80;;;;;;5061440;28;20052;-77
2023/07/13 11:51:35;;;;;;;7.97;1.40;;;23.90;57.80;;;;;;5068633;28;20056;-77
2023/07/13 11:54:31;;;;;;;3.60;1.10;;;24.20;56.60;;;;;;5056825;28;20048;-77
2023/07/13 11:57:01;;;;;;;9.10;1.45;;;24.20;55.60;;;;;;5061280;28;20432;-77
2023/07/13 11:59:32;;;;;;;10.57;1.67;;;24.40;54.00;;;;;;5084470;28;20057;-77
2023/07/13 12:02:00;;;;;;;8.68;1.38;;;24.70;54.70;;;;;;5064139;28;20496;-77
2023/07/13 12:07:31;;;;;;;9.00;1.33;;;25.30;55.50;;;;;;5018157;28;20144;-75
2023/07/13 12:10:31;;;;;;;8.50;1.38;;;25.70;51.10;;;;;;5029371;28;20448;-78
2023/07/13 12:13:01;;;;;;;5.00;0.93;;;25.80;50.50;;;;;;5026174;28;20049;-78
2023/07/13 12:15:48;;;;;;;8.02;1.85;;;26.00;50.60;;;;;;5012245;28;20092;-77
2023/07/13 12:18:22;;;;;;;13.00;1.58;;;26.10;49.60;;;;;;5028914;28;20041;-77
2023/07/13 12:20:52;;;;;;;16.48;3.47;;;26.30;49.00;;;;;;5028405;28;20049;-78
2023/07/13 12:23:32;;;;;;;6.22;1.42;;;26.40;50.40;;;;;;5028997;28;20053;-78
2023/07/13 12:26:01;;;;;;;6.75;1.30;;;26.60;49.00;;;;;;5015017;28;20049;-78
2023/07/13 12:28:39;;;;;;;6.70;1.58;;;26.50;49.10;;;;;;5030342;28;20057;-78
2023/07/13 12:31:22;;;;;;;6.00;1.20;;;26.20;48.40;;;;;;5027873;28;20081;-78
2023/07/13 12:34:16;;;;;;;4.50;1.38;;;26.00;49.10;;;;;;5028184;28;20155;-77
2023/07/13 12:36:51;;;;;;;9.48;1.30;;;25.70;48.30;;;;;;5032124;28;20133;-78
2023/07/13 12:39:35;;;;;;;7.28;1.33;;;25.40;48.30;;;;;;5033293;28;20081;-78
2023/07/13 12:42:17;;;;;;;7.72;1.23;;;25.20;48.30;;;;;;5033063;28;20148;-78
2023/07/13 12:44:45;;;;;;;5.07;1.33;;;24.90;48.40;;;;;;5041545;28;20072;-78
2023/07/13 12:47:14;;;;;;;6.15;1.33;;;24.70;50.00;;;;;;5030779;28;20056;-78
2023/07/13 12:49:47;;;;;;;5.95;1.33;;;24.50;52.00;;;;;;5033940;28;20045;-77
2023/07/13 12:52:18;;;;;;;5.78;1.65;;;24.20;52.70;;;;;;5029060;28;20525;-78
2023/07/13 12:55:03;;;;;;;7.07;1.50;;;24.00;52.90;;;;;;5030061;28;20057;-77
2023/07/13 12:57:55;;;;;;;9.07;1.38;;;23.80;53.00;;;;;;5032878;28;20053;-77
2023/07/13 13:00:22;;;;;;;10.27;2.53;;;23.60;52.50;;;;;;5033408;28;20076;-77
2023/07/13 13:02:51;;;;;;;5.15;1.42;;;23.50;53.50;;;;;;5030447;28;20082;-77
2023/07/13 13:05:23;;;;;;;11.88;1.67;;;23.40;54.20;;;;;;5029593;28;20129;-78
2023/07/13 13:07:51;;;;;;;13.68;1.90;;;23.30;54.80;;;;;;5030872;28;20081;-76
2023/07/13 13:10:18;;;;;;;6.70;1.77;;;23.00;56.60;;;;;;5010646;28;20053;-76